createdAt,value
2022-11-27T00:01:10.869Z,19.77
2022-11-27T00:03:40.228Z,20.60
2022-11-27T00:06:08.740Z,24.30
2022-11-27T00:08:36.470Z,24.10
2022-11-27T00:11:08.972Z,23.30
2022-11-27T00:13:37.100Z,19.33
2022-11-27T00:16:06.122Z,29.23
2022-11-27T00:18:34.818Z,23.70
2022-11-27T00:21:06.190Z,26.23
2022-11-27T00:23:35.015Z,24.33
2022-11-27T00:26:03.455Z,17.93
2022-11-27T00:28:31.374Z,23.63
2022-11-27T00:31:00.242Z,25.40
2022-11-27T00:33:28.205Z,26.93
2022-11-27T00:35:56.037Z,25.40
2022-11-27T00:38:25.127Z,25.17
2022-11-27T00:40:52.865Z,26.47
2022-11-27T00:43:20.617Z,26.23
2022-11-27T00:45:50.408Z,22.13
2022-11-27T00:48:18.139Z,28.10
2022-11-27T00:50:45.858Z,27.07
2022-11-27T00:53:13.595Z,28.47
2022-11-27T00:55:42.833Z,29.70
2022-11-27T00:58:10.556Z,25.30
2022-11-27T01:00:38.561Z,26.20
2022-11-27T01:03:06.320Z,26.17
2022-11-27T01:05:37.121Z,30.03
2022-11-27T01:08:05.348Z,30.47
2022-11-27T01:10:33.104Z,21.47
2022-11-27T01:13:02.225Z,34.50
2022-11-27T01:15:29.973Z,30.70
2022-11-27T01:17:57.667Z,34.60
2022-11-27T01:20:25.719Z,30.70
2022-11-27T01:22:53.419Z,29.53
2022-11-27T01:25:26.665Z,28.00
2022-11-27T01:27:55.337Z,33.50
2022-11-27T01:30:24.457Z,28.47
2022-11-27T01:32:52.147Z,33.87
2022-11-27T01:35:19.935Z,28.40
2022-11-27T01:37:47.658Z,32.23
2022-11-27T01:40:15.487Z,29.37
2022-11-27T01:42:43.257Z,35.80
2022-11-27T01:45:12.830Z,23.37
2022-11-27T01:47:46.724Z,27.87
2022-11-27T01:50:18.556Z,32.10
2022-11-27T01:52:51.177Z,32.93
2022-11-27T01:55:24.584Z,32.93
2022-11-27T01:57:55.886Z,36.73
2022-11-27T02:00:24.609Z,36.13
2022-11-27T02:02:53.902Z,35.57
2022-11-27T02:05:25.173Z,37.60
2022-11-27T02:07:54.317Z,34.93
2022-11-27T02:10:24.133Z,49.37
2022-11-27T02:12:58.815Z,37.03
2022-11-27T02:15:33.476Z,32.57
2022-11-27T02:18:10.878Z,38.37
2022-11-27T02:20:48.961Z,44.60
2022-11-27T02:23:57.860Z,42.83
2022-11-27T02:26:58.534Z,46.60
2022-11-27T02:29:32.028Z,41.20
2022-11-27T02:32:06.919Z,48.07
2022-11-27T02:34:46.015Z,53.80
2022-11-27T02:37:19.744Z,53.33
2022-11-27T02:39:53.885Z,66.43
2022-11-27T02:42:22.394Z,69.97
2022-11-27T02:44:59.492Z,62.90
2022-11-27T02:47:29.211Z,66.03
2022-11-27T02:49:57.998Z,67.70
2022-11-27T02:52:27.546Z,67.63
2022-11-27T02:54:58.808Z,65.37
2022-11-27T02:57:28.353Z,73.67
2022-11-27T02:59:59.678Z,75.93
2022-11-27T03:02:33.922Z,65.50
2022-11-27T03:05:05.304Z,74.67
2022-11-27T03:07:40.207Z,66.87
2022-11-27T03:10:11.858Z,81.80
2022-11-27T03:12:39.870Z,57.27
2022-11-27T03:15:10.377Z,69.90
2022-11-27T03:17:51.773Z,71.60
2022-11-27T03:20:24.813Z,72.10
2022-11-27T03:22:54.519Z,67.67
2022-11-27T03:25:23.285Z,77.30
2022-11-27T03:27:56.397Z,56.03
2022-11-27T03:30:25.753Z,59.73
2022-11-27T03:32:53.589Z,72.50
2022-11-27T03:35:24.751Z,50.50
2022-11-27T03:37:52.727Z,64.20
2022-11-27T03:40:21.195Z,66.20
2022-11-27T03:42:59.227Z,45.67
2022-11-27T03:45:36.309Z,61.87
2022-11-27T03:48:18.522Z,59.53
2022-11-27T03:50:57.463Z,52.37
2022-11-27T03:53:32.514Z,62.53
2022-11-27T03:56:10.252Z,55.33
2022-11-27T03:58:43.167Z,55.10
2022-11-27T04:01:15.612Z,58.00
2022-11-27T04:03:43.409Z,60.00
2022-11-27T04:06:11.732Z,51.67
2022-11-27T04:08:40.052Z,52.73
2022-11-27T04:11:08.826Z,53.00
2022-11-27T04:13:37.050Z,49.90
2022-11-27T04:16:05.200Z,58.00
2022-11-27T04:18:34.332Z,50.90
2022-11-27T04:21:02.252Z,57.30
2022-11-27T04:23:29.969Z,54.47
2022-11-27T04:25:57.715Z,54.97
2022-11-27T04:28:25.438Z,55.77
2022-11-27T04:30:55.115Z,61.77
2022-11-27T04:33:23.161Z,55.00
2022-11-27T04:35:52.770Z,57.07
2022-11-27T04:38:21.257Z,59.40
2022-11-27T04:40:49.270Z,63.43
2022-11-27T04:43:16.981Z,54.57
2022-11-27T04:45:44.852Z,64.87
2022-11-27T04:48:12.852Z,54.90
2022-11-27T04:50:40.798Z,56.07
2022-11-27T04:53:09.867Z,49.67
2022-11-27T04:55:37.632Z,46.47
2022-11-27T04:58:05.370Z,41.93
2022-11-27T05:00:33.174Z,50.70
2022-11-27T05:03:01.093Z,49.23
2022-11-27T05:05:28.895Z,58.13
2022-11-27T05:07:56.726Z,50.33
2022-11-27T05:10:25.889Z,45.43
2022-11-27T05:12:53.591Z,52.80
2022-11-27T05:15:21.308Z,43.60
2022-11-27T05:17:49.019Z,46.03
2022-11-27T05:20:16.858Z,44.87
2022-11-27T05:22:46.123Z,46.87
2022-11-27T05:25:13.843Z,39.53
2022-11-27T05:27:42.995Z,44.17
2022-11-27T05:30:11.226Z,43.90
2022-11-27T05:32:39.341Z,38.83
2022-11-27T05:35:07.793Z,48.13
2022-11-27T05:37:35.532Z,42.97
2022-11-27T05:40:03.304Z,55.03
2022-11-27T05:42:31.025Z,50.90
2022-11-27T05:45:00.482Z,38.77
2022-11-27T05:47:28.227Z,41.77
2022-11-27T05:49:55.925Z,43.67
2022-11-27T05:52:23.676Z,49.93
2022-11-27T05:54:51.445Z,38.53
2022-11-27T05:57:19.196Z,43.07
2022-11-27T05:59:46.910Z,42.77
2022-11-27T06:02:21.533Z,39.27
2022-11-27T06:04:51.686Z,42.93
2022-11-27T06:07:20.490Z,46.47
2022-11-27T06:09:48.279Z,40.87
2022-11-27T06:12:16.027Z,42.33
2022-11-27T06:14:43.754Z,46.47
2022-11-27T06:17:11.509Z,45.23
2022-11-27T06:19:40.588Z,44.57
2022-11-27T06:22:08.292Z,46.87
2022-11-27T06:24:36.019Z,40.17
2022-11-27T06:27:03.770Z,45.23
2022-11-27T06:29:31.528Z,44.33
2022-11-27T06:31:59.414Z,42.27
2022-11-27T06:34:27.232Z,40.47
2022-11-27T06:36:56.303Z,36.07
2022-11-27T06:39:24.102Z,40.90
2022-11-27T06:41:51.823Z,42.20
2022-11-27T06:44:19.541Z,48.83
2022-11-27T06:46:47.233Z,43.27
2022-11-27T06:49:14.943Z,40.67
2022-11-27T06:51:42.677Z,47.03
2022-11-27T06:54:11.751Z,39.03
2022-11-27T06:56:39.462Z,35.03
2022-11-27T06:59:07.241Z,44.50
2022-11-27T07:01:35.350Z,38.93
2022-11-27T07:04:03.138Z,43.43
2022-11-27T07:06:30.913Z,47.57
2022-11-27T07:08:58.710Z,43.93
2022-11-27T07:11:30.120Z,40.70
2022-11-27T07:13:59.572Z,39.77
2022-11-27T07:16:28.989Z,37.67
2022-11-27T07:18:59.883Z,34.47
2022-11-27T07:21:28.087Z,41.77
2022-11-27T07:23:57.179Z,40.57
2022-11-27T07:26:28.419Z,32.40
2022-11-27T07:28:56.948Z,34.43
2022-11-27T07:31:28.770Z,36.67
2022-11-27T07:33:58.311Z,38.73
2022-11-27T07:36:27.846Z,32.53
2022-11-27T07:38:55.914Z,38.77
2022-11-27T07:41:23.693Z,40.23
2022-11-27T07:43:52.772Z,41.27
2022-11-27T07:46:23.389Z,30.63
2022-11-27T07:48:51.440Z,32.87
2022-11-27T07:51:21.181Z,40.17
2022-11-27T07:53:51.639Z,31.80
2022-11-27T07:56:21.537Z,41.00
2022-11-27T07:58:49.615Z,35.80
2022-11-27T08:01:20.160Z,35.47
2022-11-27T08:03:47.992Z,34.17
2022-11-27T08:06:18.989Z,37.63
2022-11-27T08:08:46.698Z,33.60
2022-11-27T08:11:19.305Z,34.03
2022-11-27T08:13:47.227Z,37.00
2022-11-27T08:16:15.293Z,30.60
2022-11-27T08:18:44.437Z,26.97
2022-11-27T08:21:12.428Z,27.60
2022-11-27T08:23:40.168Z,24.30
2022-11-27T08:26:08.604Z,28.80
2022-11-27T08:28:36.587Z,24.47
2022-11-27T08:31:05.488Z,20.40
2022-11-27T08:33:33.873Z,19.00
2022-11-27T08:36:03.598Z,14.40
2022-11-27T08:38:31.343Z,14.40
2022-11-27T08:41:00.718Z,14.80
2022-11-27T08:43:29.816Z,15.10
2022-11-27T08:45:58.220Z,16.40
2022-11-27T08:48:26.940Z,12.43
2022-11-27T08:50:55.048Z,13.37
2022-11-27T08:53:24.169Z,13.60
2022-11-27T08:55:51.942Z,12.97
2022-11-27T08:58:19.680Z,14.30
2022-11-27T09:00:47.516Z,11.53
2022-11-27T09:03:15.366Z,13.67
2022-11-27T09:05:44.819Z,17.57
2022-11-27T09:08:16.511Z,15.67
2022-11-27T09:10:45.562Z,13.93
2022-11-27T09:13:13.325Z,9.73
2022-11-27T09:15:41.015Z,14.37
2022-11-27T09:18:08.668Z,11.40
2022-11-27T09:20:36.402Z,18.63
2022-11-27T09:23:04.191Z,11.70
2022-11-27T09:25:31.928Z,12.23
2022-11-27T09:28:01.017Z,12.97
2022-11-27T09:30:29.114Z,9.40
2022-11-27T09:32:56.965Z,12.37
2022-11-27T09:35:24.713Z,11.53
2022-11-27T09:37:52.468Z,15.33
2022-11-27T09:40:20.497Z,13.93
2022-11-27T09:42:51.759Z,12.47
2022-11-27T09:45:23.294Z,14.23
2022-11-27T09:47:55.928Z,10.00
2022-11-27T09:50:28.442Z,14.07
2022-11-27T09:52:59.719Z,11.63
2022-11-27T09:55:33.306Z,13.70
2022-11-27T09:58:06.734Z,14.10
2022-11-27T10:00:36.117Z,12.03
2022-11-27T10:03:04.074Z,10.67
2022-11-27T10:05:39.141Z,12.53
2022-11-27T10:08:33.928Z,13.30
2022-11-27T10:11:14.740Z,11.57
2022-11-27T10:13:59.523Z,10.73
2022-11-27T10:16:44.315Z,14.27
2022-11-27T10:19:23.422Z,11.60
2022-11-27T10:21:56.893Z,11.20
2022-11-27T10:24:36.550Z,12.27
2022-11-27T10:27:11.122Z,13.17
2022-11-27T10:29:47.304Z,10.83
2022-11-27T10:32:53.561Z,16.17
2022-11-27T10:35:14.589Z,13.43
2022-11-27T10:37:47.084Z,9.57
2022-11-27T10:40:22.700Z,12.20
2022-11-27T10:42:56.414Z,11.97
2022-11-27T10:45:29.072Z,11.33
2022-11-27T10:47:58.264Z,12.10
2022-11-27T10:50:25.949Z,10.10
2022-11-27T10:52:58.351Z,8.70
2022-11-27T10:55:36.122Z,8.77
2022-11-27T10:58:09.847Z,10.10
2022-11-27T11:00:37.638Z,11.70
2022-11-27T11:03:07.508Z,8.63
2022-11-27T11:06:18.352Z,9.53
2022-11-27T11:08:26.240Z,9.33
2022-11-27T11:10:55.742Z,9.23
2022-11-27T11:13:27.864Z,10.10
2022-11-27T11:15:59.300Z,8.23
2022-11-27T11:18:30.765Z,7.53
2022-11-27T11:21:01.499Z,7.97
2022-11-27T11:23:32.778Z,10.60
2022-11-27T11:26:12.968Z,11.27
2022-11-27T11:28:47.767Z,8.73
2022-11-27T11:31:20.030Z,7.43
2022-11-27T11:33:57.329Z,9.30
2022-11-27T11:36:25.445Z,10.00
2022-11-27T11:38:54.252Z,8.03
2022-11-27T11:41:23.791Z,7.10
2022-11-27T11:43:56.581Z,8.13
2022-11-27T11:46:26.662Z,10.53
2022-11-27T11:49:01.318Z,8.87
2022-11-27T11:51:42.422Z,8.63
2022-11-27T11:54:21.775Z,8.97
2022-11-27T11:56:53.375Z,8.97
2022-11-27T11:59:31.361Z,8.13
2022-11-27T12:02:26.372Z,8.83
2022-11-27T12:05:12.412Z,10.07
2022-11-27T12:08:01.936Z,7.40
2022-11-27T12:10:34.205Z,7.93
2022-11-27T12:13:10.735Z,7.27
2022-11-27T12:15:43.234Z,10.77
2022-11-27T12:18:20.127Z,5.93
2022-11-27T12:21:02.423Z,8.83
2022-11-27T12:23:43.832Z,8.43
2022-11-27T12:26:23.415Z,6.00
2022-11-27T12:29:04.804Z,7.30
2022-11-27T12:31:48.487Z,7.13
2022-11-27T12:34:27.667Z,6.13
2022-11-27T12:37:15.965Z,6.30
2022-11-27T12:39:58.339Z,6.33
2022-11-27T12:42:32.425Z,7.80
2022-11-27T12:45:05.416Z,8.17
2022-11-27T12:47:40.496Z,5.60
2022-11-27T12:50:16.160Z,6.47
2022-11-27T12:52:49.823Z,7.70
2022-11-27T12:55:22.159Z,9.97
2022-11-27T12:57:54.913Z,6.80
2022-11-27T13:00:25.340Z,8.20
2022-11-27T13:03:03.718Z,8.00
2022-11-27T13:05:35.421Z,6.87
2022-11-27T13:08:12.314Z,6.87
2022-11-27T13:10:44.212Z,8.30
2022-11-27T13:13:17.610Z,8.73
2022-11-27T13:15:50.210Z,9.27
2022-11-27T13:18:24.622Z,7.43
2022-11-27T13:20:53.113Z,7.20
2022-11-27T13:23:22.662Z,7.30
2022-11-27T13:25:54.035Z,6.73
2022-11-27T13:28:28.195Z,6.37
2022-11-27T13:30:59.410Z,6.53
2022-11-27T13:33:36.886Z,8.93
2022-11-27T13:36:07.168Z,6.67
2022-11-27T13:38:38.217Z,9.00
2022-11-27T13:41:07.013Z,7.03
2022-11-27T13:43:43.327Z,8.47
2022-11-27T13:46:25.021Z,8.00
2022-11-27T13:48:56.614Z,9.27
2022-11-27T13:51:27.714Z,5.63
2022-11-27T13:54:08.299Z,8.83
2022-11-27T13:56:36.587Z,8.77
2022-11-27T13:59:15.357Z,7.37
2022-11-27T14:01:54.448Z,9.17
2022-11-27T14:04:22.229Z,6.57
2022-11-27T14:06:55.377Z,8.27
2022-11-27T14:09:33.641Z,8.33
2022-11-27T14:12:01.909Z,13.03
2022-11-27T14:14:30.106Z,9.33
2022-11-27T14:16:59.524Z,10.17
2022-11-27T14:19:34.607Z,7.73
2022-11-27T14:22:03.309Z,10.90
2022-11-27T14:24:44.059Z,8.20
2022-11-27T14:27:21.087Z,10.90
2022-11-27T14:29:49.162Z,8.53
2022-11-27T14:32:18.942Z,7.97
2022-11-27T14:34:47.918Z,14.33
2022-11-27T14:37:24.370Z,7.90
2022-11-27T14:39:53.930Z,8.20
2022-11-27T14:42:28.115Z,10.63
2022-11-27T14:45:04.838Z,10.43
2022-11-27T14:47:33.403Z,12.20
2022-11-27T14:50:01.540Z,7.77
2022-11-27T14:52:29.935Z,10.27
2022-11-27T14:55:00.124Z,9.83
2022-11-27T14:57:30.067Z,9.93
2022-11-27T15:00:16.071Z,12.13
2022-11-27T15:02:44.208Z,11.60
2022-11-27T15:05:19.349Z,9.93
2022-11-27T15:07:50.815Z,7.37
2022-11-27T15:10:28.417Z,6.93
2022-11-27T15:12:57.470Z,8.40
2022-11-27T15:15:27.468Z,14.33
2022-11-27T15:17:58.624Z,8.10
2022-11-27T15:20:29.755Z,10.83
2022-11-27T15:22:59.776Z,6.83
2022-11-27T15:25:40.535Z,7.33
2022-11-27T15:28:34.930Z,7.43
2022-11-27T15:31:03.320Z,10.20
2022-11-27T15:33:32.502Z,9.00
2022-11-27T15:36:20.457Z,6.83
2022-11-27T15:38:50.933Z,10.17
2022-11-27T15:41:25.830Z,9.73
2022-11-27T15:43:54.323Z,5.37
2022-11-27T15:46:26.139Z,6.53
2022-11-27T15:48:54.212Z,7.07
2022-11-27T15:51:22.009Z,5.80
2022-11-27T15:53:49.738Z,8.40
2022-11-27T15:56:17.943Z,7.17
2022-11-27T15:58:47.020Z,6.93
2022-11-27T16:01:14.828Z,5.63
2022-11-27T16:03:42.653Z,8.10
2022-11-27T16:06:10.398Z,8.70
2022-11-27T16:08:38.154Z,7.20
2022-11-27T16:11:08.309Z,7.53
2022-11-27T16:13:36.046Z,7.53
2022-11-27T16:16:07.012Z,8.77
2022-11-27T16:18:35.444Z,8.93
2022-11-27T16:21:05.202Z,9.63
2022-11-27T16:23:33.491Z,8.37
2022-11-27T16:26:01.303Z,6.70
2022-11-27T16:28:31.134Z,8.20
2022-11-27T16:31:00.596Z,7.57
2022-11-27T16:33:30.928Z,8.23
2022-11-27T16:36:05.598Z,11.77
2022-11-27T16:38:33.315Z,8.43
2022-11-27T16:41:02.114Z,5.93
2022-11-27T16:43:30.396Z,4.67
2022-11-27T16:46:05.326Z,7.10
2022-11-27T16:48:35.397Z,5.93
2022-11-27T16:51:04.438Z,6.10
2022-11-27T16:53:32.247Z,5.90
2022-11-27T16:56:00.186Z,5.40
2022-11-27T16:58:27.881Z,8.63
2022-11-27T17:00:55.631Z,4.43
2022-11-27T17:03:23.378Z,6.40
2022-11-27T17:05:52.495Z,10.23
2022-11-27T17:08:20.218Z,5.93
2022-11-27T17:10:47.978Z,5.23
2022-11-27T17:13:15.683Z,7.27
2022-11-27T17:15:43.413Z,7.40
2022-11-27T17:18:11.193Z,6.63
2022-11-27T17:20:39.030Z,7.50
2022-11-27T17:23:08.074Z,11.03
2022-11-27T17:25:35.780Z,7.77
2022-11-27T17:28:03.509Z,5.20
2022-11-27T17:30:33.955Z,6.40
2022-11-27T17:33:05.598Z,8.10
2022-11-27T17:35:33.373Z,4.53
2022-11-27T17:38:01.053Z,8.60
2022-11-27T17:40:30.873Z,5.97
2022-11-27T17:42:58.613Z,7.03
2022-11-27T17:45:26.356Z,7.57
2022-11-27T17:47:54.098Z,4.93
2022-11-27T17:50:21.794Z,6.03
2022-11-27T17:52:49.551Z,4.70
2022-11-27T17:55:18.269Z,4.60
2022-11-27T17:57:47.368Z,7.07
2022-11-27T18:00:16.891Z,6.27
2022-11-27T18:02:44.723Z,4.20
2022-11-27T18:05:12.518Z,7.33
2022-11-27T18:07:40.271Z,9.03
2022-11-27T18:10:09.262Z,5.23
2022-11-27T18:12:36.997Z,4.23
2022-11-27T18:15:09.537Z,6.93
2022-11-27T18:17:37.634Z,4.60
2022-11-27T18:20:06.839Z,4.47
2022-11-27T18:22:34.557Z,5.50
2022-11-27T18:25:02.288Z,5.00
2022-11-27T18:27:30.037Z,5.60
2022-11-27T18:29:57.819Z,5.67
2022-11-27T18:32:27.057Z,4.93
2022-11-27T18:34:55.055Z,7.07
2022-11-27T18:37:23.526Z,7.07
2022-11-27T18:39:51.441Z,15.33
2022-11-27T18:42:19.169Z,3.93
2022-11-27T18:44:46.912Z,4.03
2022-11-27T18:47:15.607Z,7.67
2022-11-27T18:49:44.926Z,7.00
2022-11-27T18:52:13.204Z,5.20
2022-11-27T18:54:41.075Z,6.70
2022-11-27T18:57:10.066Z,5.37
2022-11-27T18:59:38.290Z,4.37
2022-11-27T19:02:06.269Z,8.17
2022-11-27T19:04:36.479Z,5.33
2022-11-27T19:07:05.748Z,3.90
2022-11-27T19:09:33.913Z,4.77
2022-11-27T19:12:01.679Z,5.67
2022-11-27T19:14:29.528Z,6.00
2022-11-27T19:16:58.464Z,3.90
2022-11-27T19:19:53.495Z,4.93
2022-11-27T19:22:16.873Z,4.53
2022-11-27T19:24:44.618Z,7.03
2022-11-27T19:27:12.402Z,6.07
2022-11-27T19:29:40.272Z,3.83
2022-11-27T19:32:08.236Z,4.93
2022-11-27T19:34:36.283Z,4.73
2022-11-27T19:37:04.021Z,5.70
2022-11-27T19:39:33.313Z,5.47
2022-11-27T19:42:01.069Z,5.00
2022-11-27T19:44:28.851Z,6.40
2022-11-27T19:46:56.550Z,4.50
2022-11-27T19:49:29.117Z,5.30
2022-11-27T19:51:57.151Z,8.53
2022-11-27T19:54:24.862Z,6.90
2022-11-27T19:56:54.182Z,12.63
2022-11-27T19:59:25.964Z,6.37
2022-11-27T20:01:53.981Z,8.17
2022-11-27T20:04:21.754Z,5.67
2022-11-27T20:06:52.415Z,6.73
2022-11-27T20:09:20.283Z,6.33
2022-11-27T20:11:48.035Z,5.47
2022-11-27T20:14:17.243Z,6.40
2022-11-27T20:16:45.192Z,5.73
2022-11-27T20:19:13.044Z,8.33
2022-11-27T20:21:40.836Z,7.67
2022-11-27T20:24:08.761Z,4.50
2022-11-27T20:26:39.792Z,6.07
2022-11-27T20:29:10.635Z,9.30
2022-11-27T20:31:41.604Z,9.57
2022-11-27T20:34:10.174Z,8.80
2022-11-27T20:36:40.845Z,4.87
2022-11-27T20:39:12.233Z,9.20
2022-11-27T20:41:41.758Z,7.83
2022-11-27T20:44:09.525Z,10.67
2022-11-27T20:46:37.210Z,7.77
2022-11-27T20:49:06.320Z,7.60
2022-11-27T20:51:34.408Z,8.53
2022-11-27T20:54:03.102Z,26.57
2022-11-27T20:56:31.586Z,7.83
2022-11-27T20:58:59.993Z,5.90
2022-11-27T21:01:30.020Z,9.00
2022-11-27T21:04:01.302Z,6.47
2022-11-27T21:06:32.211Z,6.20
2022-11-27T21:09:01.248Z,5.33
2022-11-27T21:11:30.710Z,5.47
2022-11-27T21:14:00.721Z,5.37
2022-11-27T21:16:32.306Z,8.57
2022-11-27T21:19:02.057Z,6.90
2022-11-27T21:21:31.550Z,11.63
2022-11-27T21:23:59.381Z,6.37
2022-11-27T21:26:27.654Z,6.63
2022-11-27T21:28:55.596Z,6.87
2022-11-27T21:31:26.326Z,8.80
2022-11-27T21:33:55.735Z,5.93
2022-11-27T21:36:25.701Z,6.37
2022-11-27T21:38:55.040Z,6.10
2022-11-27T21:41:22.949Z,6.03
2022-11-27T21:43:57.005Z,8.63
2022-11-27T21:46:26.691Z,10.70
2022-11-27T21:48:57.608Z,7.23
2022-11-27T21:51:26.387Z,11.73
2022-11-27T21:53:57.194Z,6.63
2022-11-27T21:56:27.416Z,6.73
2022-11-27T21:58:55.237Z,9.03
2022-11-27T22:01:25.638Z,6.07
2022-11-27T22:03:55.047Z,10.13
2022-11-27T22:06:24.655Z,6.33
2022-11-27T22:08:53.023Z,6.97
2022-11-27T22:11:26.649Z,7.77
2022-11-27T22:13:56.148Z,7.57
2022-11-27T22:16:25.611Z,10.00
2022-11-27T22:18:54.898Z,7.00
2022-11-27T22:21:22.929Z,6.57
2022-11-27T22:23:51.160Z,8.47
2022-11-27T22:26:21.067Z,6.67
2022-11-27T22:28:50.539Z,5.63
2022-11-27T22:31:19.993Z,7.23
2022-11-27T22:33:47.846Z,7.47
2022-11-27T22:36:17.675Z,6.37
2022-11-27T22:38:46.425Z,7.13
2022-11-27T22:41:15.177Z,8.13
2022-11-27T22:43:43.522Z,7.63
2022-11-27T22:46:15.770Z,7.83
2022-11-27T22:48:44.141Z,9.07
2022-11-27T22:51:12.100Z,7.00
2022-11-27T22:53:40.488Z,9.67
2022-11-27T22:56:10.408Z,5.90
2022-11-27T22:58:41.417Z,13.17
2022-11-27T23:01:11.127Z,9.63
2022-11-27T23:03:40.320Z,6.93
2022-11-27T23:06:11.844Z,7.60
2022-11-27T23:08:40.647Z,10.03
2022-11-27T23:11:09.089Z,7.83
2022-11-27T23:13:37.093Z,5.83
2022-11-27T23:16:07.229Z,6.43
2022-11-27T23:18:36.002Z,8.87
2022-11-27T23:21:08.029Z,7.00
2022-11-27T23:23:35.787Z,6.20
2022-11-27T23:26:05.071Z,8.27
2022-11-27T23:28:36.256Z,9.03
2022-11-27T23:31:28.081Z,8.87
2022-11-27T23:33:53.401Z,10.47
2022-11-27T23:36:22.652Z,8.30
2022-11-27T23:38:50.445Z,9.97
2022-11-27T23:41:19.741Z,9.80
2022-11-27T23:43:47.764Z,7.00
2022-11-27T23:46:17.537Z,9.73
2022-11-27T23:48:45.525Z,7.80
2022-11-27T23:51:15.037Z,8.93
2022-11-27T23:53:44.610Z,10.13
2022-11-27T23:56:15.024Z,8.00
2022-11-27T23:58:46.932Z,8.53
